createdAt,value
2018-02-16T00:00:50.194Z,47.32
2018-02-16T00:03:16.164Z,47.20
2018-02-16T00:05:42.120Z,47.13
2018-02-16T00:08:08.081Z,47.21
2018-02-16T00:10:34.038Z,47.23
2018-02-16T00:13:00.019Z,47.10
2018-02-16T00:15:25.953Z,46.99
2018-02-16T00:17:51.917Z,46.97
2018-02-16T00:20:17.859Z,47.13
2018-02-16T00:22:43.836Z,46.86
2018-02-16T00:25:09.845Z,46.96
2018-02-16T00:27:35.817Z,46.96
2018-02-16T00:30:01.757Z,47.00
2018-02-16T00:32:27.705Z,46.95
2018-02-16T00:34:53.768Z,46.98
2018-02-16T00:37:19.738Z,46.98
2018-02-16T00:39:45.676Z,46.95
2018-02-16T00:42:11.636Z,47.14
2018-02-16T00:44:37.584Z,47.00
2018-02-16T00:47:03.542Z,47.05
2018-02-16T00:49:29.479Z,46.98
2018-02-16T00:51:55.430Z,46.88
2018-02-16T00:54:21.376Z,46.98
2018-02-16T00:56:47.320Z,46.80
2018-02-16T00:59:13.285Z,46.90
2018-02-16T01:01:39.337Z,46.57
2018-02-16T01:04:05.311Z,46.77
2018-02-16T01:06:31.254Z,46.90
2018-02-16T01:08:57.209Z,47.02
2018-02-16T01:11:23.153Z,46.80
2018-02-16T01:13:49.105Z,46.91
2018-02-16T01:16:15.076Z,46.96
2018-02-16T01:18:41.014Z,46.94
2018-02-16T01:21:06.961Z,46.78
2018-02-16T01:23:32.905Z,46.85
2018-02-16T01:25:58.861Z,46.95
2018-02-16T01:28:24.808Z,46.75
2018-02-16T01:30:50.887Z,47.00
2018-02-16T01:33:16.845Z,47.00
2018-02-16T01:35:42.786Z,47.06
2018-02-16T01:38:08.732Z,47.04
2018-02-16T01:40:34.673Z,46.90
2018-02-16T01:43:00.617Z,46.84
2018-02-16T01:45:26.565Z,46.78
2018-02-16T01:47:52.504Z,46.85
2018-02-16T01:50:18.462Z,46.84
2018-02-16T01:52:44.396Z,46.81
2018-02-16T01:55:10.337Z,46.69
2018-02-16T01:57:36.314Z,46.94
2018-02-16T02:00:02.285Z,46.80
2018-02-16T02:02:28.217Z,46.83
2018-02-16T02:04:54.176Z,46.85
2018-02-16T02:07:20.125Z,46.86
2018-02-16T02:09:46.085Z,46.74
2018-02-16T02:12:12.037Z,46.77
2018-02-16T02:14:38.020Z,46.66
2018-02-16T02:17:03.978Z,46.84
2018-02-16T02:19:29.952Z,46.72
2018-02-16T02:21:55.904Z,46.81
2018-02-16T02:24:21.865Z,46.90
2018-02-16T02:26:47.826Z,47.08
2018-02-16T02:29:13.792Z,46.74
2018-02-16T02:31:39.745Z,46.78
2018-02-16T02:34:05.691Z,46.75
2018-02-16T02:36:31.650Z,46.90
2018-02-16T02:38:57.597Z,46.97
2018-02-16T02:41:23.585Z,46.91
2018-02-16T02:43:49.551Z,46.73
2018-02-16T02:46:15.489Z,46.70
2018-02-16T02:48:41.454Z,46.78
2018-02-16T02:51:07.399Z,46.72
2018-02-16T02:53:33.370Z,46.81
2018-02-16T02:55:59.316Z,46.79
2018-02-16T02:58:25.269Z,46.78
2018-02-16T03:00:51.221Z,46.77
2018-02-16T03:03:17.278Z,46.88
2018-02-16T03:05:43.221Z,46.84
2018-02-16T03:08:09.161Z,46.81
2018-02-16T03:10:35.134Z,46.83
2018-02-16T03:13:01.086Z,46.82
2018-02-16T03:15:27.025Z,46.80
2018-02-16T03:17:52.981Z,46.58
2018-02-16T03:20:18.922Z,46.71
2018-02-16T03:22:44.916Z,46.79
2018-02-16T03:25:10.865Z,46.69
2018-02-16T03:27:36.828Z,46.90
2018-02-16T03:30:02.766Z,46.78
2018-02-16T03:32:28.700Z,46.76
2018-02-16T03:34:54.642Z,46.66
2018-02-16T03:37:20.671Z,46.63
2018-02-16T03:39:46.617Z,46.56
2018-02-16T03:42:12.565Z,46.52
2018-02-16T03:44:38.531Z,46.29
2018-02-16T03:47:04.474Z,45.61
2018-02-16T03:49:30.421Z,45.24
2018-02-16T03:51:56.361Z,45.02
2018-02-16T03:54:22.297Z,44.83
2018-02-16T03:56:48.243Z,44.97
2018-02-16T03:59:14.182Z,45.10
2018-02-16T04:01:40.127Z,45.00
2018-02-16T04:04:06.086Z,44.84
2018-02-16T04:06:32.052Z,45.04
2018-02-16T04:08:57.997Z,44.99
2018-02-16T04:11:23.950Z,44.65
2018-02-16T04:13:49.889Z,44.80
2018-02-16T04:16:15.831Z,44.92
2018-02-16T04:18:41.793Z,45.06
2018-02-16T04:21:07.760Z,44.75
2018-02-16T04:23:33.711Z,44.85
2018-02-16T04:25:59.669Z,44.82
2018-02-16T04:28:25.649Z,44.92
2018-02-16T04:30:51.597Z,44.79
2018-02-16T04:33:17.569Z,44.80
2018-02-16T04:35:43.547Z,44.98
2018-02-16T04:38:09.496Z,44.93
2018-02-16T04:40:35.467Z,44.76
2018-02-16T04:43:01.403Z,44.92
2018-02-16T04:45:27.376Z,45.02
2018-02-16T04:47:53.332Z,44.97
2018-02-16T04:50:19.273Z,45.24
2018-02-16T04:52:45.217Z,44.90
2018-02-16T04:55:11.256Z,44.89
2018-02-16T04:57:37.229Z,44.75
2018-02-16T05:00:03.182Z,44.73
2018-02-16T05:02:29.166Z,44.83
2018-02-16T05:04:55.109Z,45.14
2018-02-16T05:07:21.045Z,45.37
2018-02-16T05:09:47.005Z,46.01
2018-02-16T05:12:12.948Z,45.74
2018-02-16T05:14:38.904Z,45.43
2018-02-16T05:17:04.853Z,45.55
2018-02-16T05:19:30.816Z,45.72
2018-02-16T05:21:56.793Z,45.79
2018-02-16T05:24:22.760Z,46.00
2018-02-16T05:26:48.720Z,45.71
2018-02-16T05:29:14.668Z,45.98
2018-02-16T05:31:40.627Z,45.95
2018-02-16T05:34:06.569Z,45.87
2018-02-16T05:36:32.542Z,45.86
2018-02-16T05:38:58.492Z,45.84
2018-02-16T05:41:24.438Z,45.91
2018-02-16T05:43:50.386Z,45.75
2018-02-16T05:46:16.324Z,45.56
2018-02-16T05:48:42.292Z,45.26
2018-02-16T05:51:08.234Z,45.25
2018-02-16T05:53:34.198Z,45.38
2018-02-16T05:56:00.176Z,45.45
2018-02-16T05:58:26.123Z,45.45
2018-02-16T06:00:52.065Z,45.68
2018-02-16T06:03:18.132Z,45.60
2018-02-16T06:05:44.085Z,45.57
2018-02-16T06:08:10.030Z,45.67
2018-02-16T06:10:36.022Z,45.63
2018-02-16T06:13:01.960Z,45.75
2018-02-16T06:15:27.913Z,45.68
2018-02-16T06:17:53.956Z,45.86
2018-02-16T06:20:19.902Z,45.56
2018-02-16T06:22:45.842Z,45.75
2018-02-16T06:25:11.786Z,45.90
2018-02-16T06:27:37.724Z,45.68
2018-02-16T06:30:03.672Z,45.58
2018-02-16T06:32:29.629Z,45.64
2018-02-16T06:34:55.586Z,45.74
2018-02-16T06:37:21.555Z,45.68
2018-02-16T06:39:47.540Z,45.43
2018-02-16T06:42:13.486Z,45.59
2018-02-16T06:44:39.454Z,45.68
2018-02-16T06:47:05.431Z,45.68
2018-02-16T06:49:31.387Z,45.58
2018-02-16T06:51:57.345Z,45.37
2018-02-16T06:54:23.290Z,45.44
2018-02-16T06:56:49.245Z,45.57
2018-02-16T06:59:15.197Z,45.41
2018-02-16T07:01:41.170Z,45.54
2018-02-16T07:04:07.140Z,45.56
2018-02-16T07:06:33.080Z,45.77
2018-02-16T07:08:59.136Z,45.59
2018-02-16T07:11:25.076Z,45.40
2018-02-16T07:13:51.038Z,45.63
2018-02-16T07:16:16.998Z,45.77
2018-02-16T07:18:42.939Z,45.84
2018-02-16T07:21:08.885Z,45.49
2018-02-16T07:23:34.941Z,45.59
2018-02-16T07:26:00.899Z,45.61
2018-02-16T07:28:26.858Z,45.88
2018-02-16T07:30:52.801Z,45.50
2018-02-16T07:33:18.753Z,45.51
2018-02-16T07:35:44.695Z,45.57
2018-02-16T07:38:10.673Z,45.77
2018-02-16T07:40:36.630Z,45.56
2018-02-16T07:43:02.577Z,45.66
2018-02-16T07:45:28.513Z,45.37
2018-02-16T07:47:54.481Z,45.58
2018-02-16T07:50:20.424Z,45.48
2018-02-16T07:52:46.362Z,45.49
2018-02-16T07:55:12.314Z,45.57
2018-02-16T07:57:38.261Z,45.13
2018-02-16T08:00:04.230Z,45.11
2018-02-16T08:02:30.169Z,44.83
2018-02-16T08:04:56.197Z,45.46
2018-02-16T08:07:22.156Z,45.33
2018-02-16T08:09:48.131Z,45.36
2018-02-16T08:12:14.138Z,45.39
2018-02-16T08:14:40.077Z,45.39
2018-02-16T08:17:06.021Z,45.15
2018-02-16T08:19:32.022Z,45.08
2018-02-16T08:21:57.962Z,45.05
2018-02-16T08:24:23.905Z,44.96
2018-02-16T08:26:49.881Z,44.91
2018-02-16T08:29:15.830Z,45.15
2018-02-16T08:31:41.771Z,45.30
2018-02-16T08:34:07.721Z,45.30
2018-02-16T08:36:33.664Z,45.20
2018-02-16T08:38:59.605Z,45.31
2018-02-16T08:41:25.546Z,45.17
2018-02-16T08:43:51.516Z,45.03
2018-02-16T08:46:17.501Z,45.11
2018-02-16T08:48:43.433Z,45.15
2018-02-16T08:51:09.388Z,45.06
2018-02-16T08:53:35.346Z,45.45
2018-02-16T08:56:01.296Z,44.98
2018-02-16T08:58:27.253Z,45.17
2018-02-16T09:00:53.228Z,44.95
2018-02-16T09:03:19.181Z,45.08
2018-02-16T09:05:45.157Z,45.38
2018-02-16T09:08:11.093Z,45.49
2018-02-16T09:10:37.049Z,45.76
2018-02-16T09:13:02.997Z,45.68
2018-02-16T09:15:29.009Z,45.36
2018-02-16T09:17:54.986Z,46.00
2018-02-16T09:20:20.944Z,45.46
2018-02-16T09:22:46.897Z,45.77
2018-02-16T09:25:12.842Z,45.86
2018-02-16T09:27:38.813Z,45.84
2018-02-16T09:30:04.762Z,45.73
2018-02-16T09:32:30.706Z,45.72
2018-02-16T09:34:56.657Z,45.40
2018-02-16T09:37:22.589Z,45.79
2018-02-16T09:39:48.569Z,46.16
2018-02-16T09:42:14.510Z,46.09
2018-02-16T09:44:40.479Z,45.98
2018-02-16T09:47:06.429Z,46.42
2018-02-16T09:49:32.390Z,45.97
2018-02-16T09:51:58.325Z,45.92
2018-02-16T09:54:24.271Z,45.79
2018-02-16T09:56:50.246Z,45.98
2018-02-16T09:59:16.186Z,46.01
2018-02-16T10:01:42.150Z,45.98
2018-02-16T10:04:08.112Z,45.79
2018-02-16T10:06:34.054Z,45.84
2018-02-16T10:09:00.008Z,46.45
2018-02-16T10:11:25.981Z,46.30
2018-02-16T10:13:51.926Z,46.30
2018-02-16T10:16:17.885Z,46.12
2018-02-16T10:18:43.834Z,46.39
2018-02-16T10:21:09.788Z,46.11
2018-02-16T10:23:35.743Z,46.77
2018-02-16T10:26:01.706Z,45.39
2018-02-16T10:28:27.661Z,45.41
2018-02-16T10:30:53.625Z,46.09
2018-02-16T10:33:19.570Z,45.83
2018-02-16T10:35:45.517Z,45.56
2018-02-16T10:38:11.457Z,45.82
2018-02-16T10:40:37.434Z,45.83
2018-02-16T10:43:03.395Z,45.81
2018-02-16T10:45:29.341Z,45.73
2018-02-16T10:47:55.278Z,45.86
2018-02-16T10:50:21.224Z,45.59
2018-02-16T10:52:47.195Z,45.81
2018-02-16T10:55:13.137Z,45.70
2018-02-16T10:57:39.086Z,45.87
2018-02-16T11:00:05.033Z,45.92
2018-02-16T11:02:30.974Z,45.72
2018-02-16T11:04:56.931Z,45.83
2018-02-16T11:07:22.881Z,45.75
2018-02-16T11:09:48.861Z,45.97
2018-02-16T11:12:14.819Z,45.89
2018-02-16T11:14:40.838Z,45.75
2018-02-16T11:17:06.745Z,45.64
2018-02-16T11:19:32.696Z,45.94
2018-02-16T11:21:58.684Z,46.14
2018-02-16T11:24:24.662Z,46.02
2018-02-16T11:26:50.618Z,45.92
2018-02-16T11:29:16.572Z,45.95
2018-02-16T11:31:42.538Z,46.04
2018-02-16T11:34:08.481Z,46.11
2018-02-16T11:36:34.430Z,45.82
2018-02-16T11:39:00.382Z,45.81
2018-02-16T11:41:26.389Z,45.81
2018-02-16T11:43:52.364Z,46.02
2018-02-16T11:46:18.317Z,45.76
2018-02-16T11:48:44.295Z,45.90
2018-02-16T11:51:10.374Z,46.07
2018-02-16T11:53:36.310Z,46.01
2018-02-16T11:56:02.249Z,45.93
2018-02-16T11:58:28.193Z,45.86
2018-02-16T12:00:54.159Z,45.99
2018-02-16T12:03:20.141Z,45.82
2018-02-16T12:05:46.091Z,46.01
2018-02-16T12:08:12.042Z,46.16
2018-02-16T12:10:38.023Z,46.09
2018-02-16T12:13:03.968Z,46.07
2018-02-16T12:15:29.964Z,46.10
2018-02-16T12:17:55.934Z,45.95
2018-02-16T12:20:21.882Z,46.00
2018-02-16T12:22:47.844Z,45.73
2018-02-16T12:25:13.785Z,45.88
2018-02-16T12:27:39.818Z,45.93
2018-02-16T12:30:05.798Z,45.86
2018-02-16T12:32:31.758Z,45.91
2018-02-16T12:34:57.742Z,45.79
2018-02-16T12:37:23.684Z,45.78
2018-02-16T12:39:49.649Z,45.71
2018-02-16T12:42:15.627Z,45.78
2018-02-16T12:44:41.573Z,45.65
2018-02-16T12:47:07.536Z,46.11
2018-02-16T12:49:33.482Z,45.71
2018-02-16T12:51:59.433Z,45.70
2018-02-16T12:54:25.380Z,45.54
2018-02-16T12:56:51.323Z,45.80
2018-02-16T12:59:17.269Z,46.09
2018-02-16T13:01:43.234Z,45.74
2018-02-16T13:04:09.206Z,45.57
2018-02-16T13:06:35.145Z,45.69
2018-02-16T13:09:01.121Z,45.58
2018-02-16T13:11:27.100Z,45.73
2018-02-16T13:13:53.045Z,45.69
2018-02-16T13:16:19.007Z,45.64
2018-02-16T13:18:44.957Z,45.89
2018-02-16T13:21:10.928Z,45.49
2018-02-16T13:23:36.861Z,46.44
2018-02-16T13:26:02.862Z,46.26
2018-02-16T13:28:28.781Z,46.10
2018-02-16T13:30:54.729Z,46.06
2018-02-16T13:33:20.707Z,46.21
2018-02-16T13:35:46.653Z,45.60
2018-02-16T13:38:12.717Z,45.85
2018-02-16T13:40:38.690Z,44.98
2018-02-16T13:43:04.643Z,44.19
2018-02-16T13:45:30.585Z,44.49
2018-02-16T13:47:56.537Z,44.52
2018-02-16T13:50:22.497Z,44.31
2018-02-16T13:52:48.457Z,44.57
2018-02-16T13:55:14.395Z,44.73
2018-02-16T13:57:40.412Z,45.16
2018-02-16T14:00:06.384Z,45.17
2018-02-16T14:02:32.326Z,45.26
2018-02-16T14:04:58.509Z,45.10
2018-02-16T14:07:24.514Z,45.75
2018-02-16T14:09:50.473Z,45.69
2018-02-16T14:12:16.426Z,45.46
2018-02-16T14:14:42.450Z,45.63
2018-02-16T14:17:08.405Z,45.68
2018-02-16T14:19:34.350Z,45.30
2018-02-16T14:22:00.365Z,45.61
2018-02-16T14:24:26.321Z,45.67
2018-02-16T14:26:52.277Z,45.59
2018-02-16T14:29:18.226Z,45.65
2018-02-16T14:31:44.197Z,45.31
2018-02-16T14:34:10.141Z,45.50
2018-02-16T14:36:36.142Z,45.78
2018-02-16T14:39:02.101Z,45.95
2018-02-16T14:41:28.051Z,46.01
2018-02-16T14:43:54.077Z,45.99
2018-02-16T14:46:20.195Z,46.00
2018-02-16T14:48:46.261Z,46.01
2018-02-16T14:51:12.744Z,45.92
2018-02-16T14:53:38.749Z,45.71
2018-02-16T14:56:04.773Z,45.71
2018-02-16T14:58:30.698Z,45.89
2018-02-16T15:00:56.671Z,45.74
2018-02-16T15:03:22.630Z,45.88
2018-02-16T15:05:48.601Z,46.01
2018-02-16T15:08:14.554Z,45.87
2018-02-16T15:10:40.485Z,46.06
2018-02-16T15:13:06.437Z,46.13
2018-02-16T15:15:32.420Z,46.10
2018-02-16T15:17:58.379Z,45.96
2018-02-16T15:20:24.332Z,45.92
2018-02-16T15:22:50.267Z,46.19
2018-02-16T15:25:16.272Z,46.00
2018-02-16T15:27:42.191Z,46.16
2018-02-16T15:30:08.150Z,45.99
2018-02-16T15:32:34.242Z,46.18
2018-02-16T15:35:00.196Z,46.04
2018-02-16T15:37:26.147Z,46.04
2018-02-16T15:39:52.162Z,45.89
2018-02-16T15:42:18.117Z,45.90
2018-02-16T15:44:44.076Z,45.97
2018-02-16T15:47:10.055Z,45.99
2018-02-16T15:49:36.025Z,45.93
2018-02-16T15:52:02.046Z,46.12
2018-02-16T15:54:28.005Z,46.05
2018-02-16T15:56:53.957Z,46.09
2018-02-16T15:59:19.905Z,46.27
2018-02-16T16:01:45.866Z,46.49
2018-02-16T16:04:11.817Z,46.31
2018-02-16T16:06:37.761Z,46.46
2018-02-16T16:09:03.736Z,46.74
2018-02-16T16:11:29.685Z,46.47
2018-02-16T16:13:55.658Z,46.49
2018-02-16T16:16:21.626Z,46.53
2018-02-16T16:18:47.593Z,46.56
2018-02-16T16:21:13.541Z,46.61
2018-02-16T16:23:39.495Z,46.26
2018-02-16T16:26:05.461Z,46.26
2018-02-16T16:28:31.407Z,46.34
2018-02-16T16:30:57.358Z,46.33
2018-02-16T16:33:23.308Z,46.58
2018-02-16T16:35:49.264Z,46.42
2018-02-16T16:38:15.273Z,46.57
2018-02-16T16:40:41.585Z,46.58
2018-02-16T16:43:07.572Z,46.51
2018-02-16T16:45:33.534Z,46.36
2018-02-16T16:47:59.534Z,46.63
2018-02-16T16:50:25.508Z,46.46
2018-02-16T16:52:51.547Z,47.85
2018-02-16T16:55:17.487Z,47.99
2018-02-16T16:57:43.443Z,47.43
2018-02-16T17:00:09.504Z,47.35
2018-02-16T17:02:35.446Z,46.99
2018-02-16T17:05:01.428Z,47.24
2018-02-16T17:07:27.370Z,47.19
2018-02-16T17:09:53.328Z,47.38
2018-02-16T17:12:19.282Z,47.45
2018-02-16T17:14:45.281Z,47.33
2018-02-16T17:17:11.241Z,47.24
2018-02-16T17:19:37.189Z,47.09
2018-02-16T17:22:03.162Z,47.17
2018-02-16T17:24:29.126Z,47.32
2018-02-16T17:26:55.106Z,47.31
2018-02-16T17:29:21.050Z,47.41
2018-02-16T17:31:47.005Z,47.64
2018-02-16T17:34:12.970Z,47.66
2018-02-16T17:36:38.961Z,47.74
2018-02-16T17:39:04.918Z,47.75
2018-02-16T17:41:30.982Z,47.79
2018-02-16T17:43:56.949Z,47.16
2018-02-16T17:46:22.889Z,45.85
2018-02-16T17:48:48.852Z,46.66
2018-02-16T17:51:14.805Z,46.35
2018-02-16T17:53:40.752Z,46.62
2018-02-16T17:56:06.737Z,46.73
2018-02-16T17:58:32.722Z,46.90
2018-02-16T18:00:58.694Z,47.01
2018-02-16T18:03:24.658Z,47.06
2018-02-16T18:05:50.651Z,47.15
2018-02-16T18:08:16.710Z,47.20
2018-02-16T18:10:42.710Z,47.32
2018-02-16T18:13:08.656Z,47.40
2018-02-16T18:15:34.610Z,47.27
2018-02-16T18:18:00.549Z,47.36
2018-02-16T18:20:26.498Z,47.43
2018-02-16T18:22:52.444Z,47.38
2018-02-16T18:25:18.470Z,47.37
2018-02-16T18:27:44.505Z,47.30
2018-02-16T18:30:10.471Z,47.05
2018-02-16T18:32:36.410Z,47.29
2018-02-16T18:35:02.401Z,47.20
2018-02-16T18:37:28.349Z,47.15
2018-02-16T18:39:54.318Z,47.19
2018-02-16T18:42:20.265Z,47.79
2018-02-16T18:44:46.290Z,47.45
2018-02-16T18:47:12.274Z,47.18
2018-02-16T18:49:38.218Z,47.06
2018-02-16T18:52:04.177Z,47.05
2018-02-16T18:54:30.117Z,47.01
2018-02-16T18:56:56.102Z,47.14
2018-02-16T18:59:22.078Z,47.21
2018-02-16T19:01:48.017Z,47.13
2018-02-16T19:04:13.991Z,47.23
2018-02-16T19:06:39.965Z,47.18
2018-02-16T19:09:05.926Z,47.05
2018-02-16T19:11:31.904Z,47.29
2018-02-16T19:13:57.922Z,47.16
2018-02-16T19:16:23.954Z,47.13
2018-02-16T19:18:49.902Z,47.26
2018-02-16T19:21:15.924Z,47.25
2018-02-16T19:23:41.879Z,47.24
2018-02-16T19:26:07.837Z,47.36
2018-02-16T19:28:33.823Z,47.41
2018-02-16T19:31:00.963Z,47.37
2018-02-16T19:33:26.987Z,47.17
2018-02-16T19:35:52.956Z,47.18
2018-02-16T19:38:19.159Z,47.21
2018-02-16T19:40:45.412Z,47.19
2018-02-16T19:43:11.411Z,47.21
2018-02-16T19:45:37.596Z,47.17
2018-02-16T19:48:03.581Z,47.11
2018-02-16T19:50:29.547Z,46.91
2018-02-16T19:52:55.803Z,47.05
2018-02-16T19:55:22.079Z,47.08
2018-02-16T19:57:48.062Z,47.00
2018-02-16T20:00:14.381Z,47.14
2018-02-16T20:02:40.438Z,47.05
2018-02-16T20:05:06.404Z,47.09
2018-02-16T20:07:32.643Z,47.02
2018-02-16T20:09:59.012Z,47.02
2018-02-16T20:12:25.036Z,46.72
2018-02-16T20:14:51.236Z,46.82
2018-02-16T20:17:17.472Z,46.84
2018-02-16T20:19:43.703Z,47.16
2018-02-16T20:22:09.972Z,47.15
2018-02-16T20:24:36.040Z,47.09
2018-02-16T20:27:01.992Z,47.21
2018-02-16T20:29:27.936Z,47.13
2018-02-16T20:31:54.151Z,46.93
2018-02-16T20:34:20.149Z,46.98
2018-02-16T20:36:46.321Z,46.83
2018-02-16T20:39:12.295Z,46.79
2018-02-16T20:41:38.515Z,46.93
2018-02-16T20:44:04.603Z,46.88
2018-02-16T20:46:30.581Z,46.91
2018-02-16T20:48:56.738Z,47.00
2018-02-16T20:51:22.776Z,47.15
2018-02-16T20:53:48.983Z,47.13
2018-02-16T20:56:14.959Z,47.50
2018-02-16T20:58:40.903Z,47.10
2018-02-16T21:01:06.855Z,47.27
2018-02-16T21:03:32.856Z,47.03
2018-02-16T21:05:58.822Z,46.77
2018-02-16T21:08:24.777Z,46.74
2018-02-16T21:10:50.748Z,46.92
2018-02-16T21:13:16.716Z,46.95
2018-02-16T21:15:42.687Z,46.89
2018-02-16T21:18:08.623Z,47.02
2018-02-16T21:20:34.596Z,47.01
2018-02-16T21:23:00.535Z,47.01
2018-02-16T21:25:26.495Z,47.15
2018-02-16T21:27:52.442Z,46.99
2018-02-16T21:30:18.403Z,47.11
2018-02-16T21:32:44.348Z,47.11
2018-02-16T21:35:10.309Z,47.12
2018-02-16T21:37:36.259Z,47.06
2018-02-16T21:40:02.238Z,47.07
2018-02-16T21:42:28.206Z,47.13
2018-02-16T21:44:54.167Z,47.18
2018-02-16T21:47:20.119Z,47.27
2018-02-16T21:49:46.087Z,47.29
2018-02-16T21:52:12.055Z,47.16
2018-02-16T21:54:37.994Z,47.12
2018-02-16T21:57:03.979Z,47.21
2018-02-16T21:59:29.913Z,47.04
2018-02-16T22:01:55.862Z,47.21
2018-02-16T22:04:21.869Z,47.25
2018-02-16T22:06:47.823Z,47.42
2018-02-16T22:09:13.773Z,47.37
2018-02-16T22:11:39.749Z,47.26
2018-02-16T22:14:05.705Z,47.23
2018-02-16T22:16:31.667Z,47.30
2018-02-16T22:18:57.662Z,47.35
2018-02-16T22:21:23.603Z,47.35
2018-02-16T22:23:49.547Z,47.31
2018-02-16T22:26:15.497Z,47.42
2018-02-16T22:28:41.472Z,47.20
2018-02-16T22:31:07.434Z,47.18
2018-02-16T22:33:33.552Z,47.13
2018-02-16T22:35:59.462Z,47.24
2018-02-16T22:38:25.433Z,47.11
2018-02-16T22:40:51.411Z,47.22
2018-02-16T22:43:17.394Z,47.23
2018-02-16T22:45:43.373Z,47.07
2018-02-16T22:48:09.311Z,47.09
2018-02-16T22:50:35.277Z,47.22
2018-02-16T22:53:01.226Z,47.25
2018-02-16T22:55:27.190Z,47.23
2018-02-16T22:57:53.150Z,47.28
2018-02-16T23:00:19.144Z,47.15
2018-02-16T23:02:45.085Z,47.07
2018-02-16T23:05:11.037Z,47.11
2018-02-16T23:07:37.002Z,47.44
2018-02-16T23:10:02.958Z,47.03
2018-02-16T23:12:28.940Z,47.09
2018-02-16T23:14:54.896Z,47.11
2018-02-16T23:17:20.851Z,47.00
2018-02-16T23:19:46.806Z,47.20
2018-02-16T23:22:12.743Z,46.96
2018-02-16T23:24:38.710Z,46.96
2018-02-16T23:27:04.666Z,47.02
2018-02-16T23:29:30.630Z,46.77
2018-02-16T23:31:56.577Z,46.93
2018-02-16T23:34:22.688Z,46.63
2018-02-16T23:36:48.659Z,46.79
2018-02-16T23:39:14.710Z,47.11
2018-02-16T23:41:40.670Z,47.00
2018-02-16T23:44:06.571Z,46.98
2018-02-16T23:46:32.526Z,47.05
2018-02-16T23:48:58.478Z,46.90
2018-02-16T23:51:24.423Z,46.91
2018-02-16T23:53:50.395Z,46.88
2018-02-16T23:56:16.335Z,46.95
2018-02-16T23:58:42.295Z,46.90
